Time;durP1;ratioP1;P1;durP2;ratioP2;P2;SDS_P1;SDS_P2;PMS_P1;PMS_P2;Temp;Humidity;BMP_temperature;BMP_pressure;BME280_temperature;BME280_humidity;BME280_pressure;Samples;Min_cycle;Max_cycle;Signal;HPM_P1;HPM_P2
2021/12/15 00:01:21;;;;;;;69.60;39.63;;;;;;;8.14;100.00;102854.19;5091975;28;20054;-83
2021/12/15 00:03:46;;;;;;;72.82;39.28;;;;;;;8.12;100.00;102854.25;5091350;28;20064;-83
2021/12/15 00:06:18;;;;;;;69.03;38.97;;;;;;;8.15;100.00;102864.63;5085907;28;20361;-83
2021/12/15 00:08:49;;;;;;;72.47;38.93;;;;;;;8.11;100.00;102847.28;5092279;28;20024;-83
2021/12/15 00:11:15;;;;;;;76.00;39.80;;;;;;;8.15;100.00;102856.78;5082619;28;20110;-83
2021/12/15 00:13:43;;;;;;;67.80;38.65;;;;;;;8.17;100.00;102857.59;5095152;28;20432;-82
2021/12/15 00:16:10;;;;;;;71.25;39.10;;;;;;;8.15;100.00;102846.28;5092119;28;20039;-82
2021/12/15 00:18:36;;;;;;;73.30;39.10;;;;;;;8.12;100.00;102841.13;5088646;28;20028;-84
2021/12/15 00:21:03;;;;;;;68.35;39.10;;;;;;;8.10;100.00;102842.94;5091810;28;20257;-84
2021/12/15 00:23:28;;;;;;;72.53;39.55;;;;;;;8.07;100.00;102837.81;5087834;28;20437;-83
2021/12/15 00:25:54;;;;;;;70.95;39.13;;;;;;;8.07;100.00;102832.56;5090472;28;20036;-83
2021/12/15 00:28:22;;;;;;;70.63;39.08;;;;;;;8.10;100.00;102831.59;5091121;28;20368;-83
2021/12/15 00:30:48;;;;;;;70.97;40.17;;;;;;;8.12;100.00;102842.91;5087561;28;20113;-83
2021/12/15 00:33:13;;;;;;;69.32;38.05;;;;;;;8.10;100.00;102837.72;5090182;28;20051;-83
2021/12/15 00:35:39;;;;;;;74.60;40.58;;;;;;;8.13;100.00;102845.47;5091931;28;20338;-83
2021/12/15 00:38:05;;;;;;;70.43;38.45;;;;;;;8.11;100.00;102841.19;5091180;28;20051;-83
2021/12/15 00:40:31;;;;;;;69.50;39.20;;;;;;;8.09;100.00;102836.00;5088956;28;20024;-83
2021/12/15 00:42:56;;;;;;;70.72;39.33;;;;;;;8.14;100.00;102841.94;5087993;28;20081;-83
2021/12/15 00:45:22;;;;;;;75.07;40.22;;;;;;;8.14;100.00;102841.09;5094324;28;20104;-84
2021/12/15 00:47:48;;;;;;;69.95;38.15;;;;;;;8.09;100.00;102836.00;5086805;28;20484;-85
2021/12/15 00:50:17;;;;;;;72.13;38.67;;;;;;;8.10;100.00;102831.59;5089836;28;20028;-85
2021/12/15 00:52:44;;;;;;;67.90;37.00;;;;;;;8.10;100.00;102840.34;5089921;28;20055;-85
2021/12/15 00:55:12;;;;;;;68.78;37.72;;;;;;;8.11;100.00;102844.66;5090685;28;20032;-83
2021/12/15 00:57:38;;;;;;;70.18;38.28;;;;;;;8.05;100.00;102829.13;5090043;28;20028;-83
2021/12/15 01:00:13;;;;;;;64.82;37.85;;;;;;;8.03;100.00;102823.09;5084421;28;20089;-82
2021/12/15 01:02:39;;;;;;;68.65;36.38;;;;;;;8.11;100.00;102830.69;5089135;28;20102;-83
2021/12/15 01:05:14;;;;;;;66.78;37.40;;;;;;;8.12;100.00;102832.41;5090623;28;20123;-83
2021/12/15 01:07:40;;;;;;;67.13;37.05;;;;;;;8.09;100.00;102828.13;5088679;28;20341;-82
2021/12/15 01:10:07;;;;;;;65.95;36.88;;;;;;;8.14;100.00;102848.97;5088966;28;20038;-83
2021/12/15 01:21:17;;;;;;;67.47;37.15;;;;;;;8.05;100.00;102837.00;5089252;28;20057;-82
2021/12/15 01:23:43;;;;;;;66.72;37.45;;;;;;;8.16;100.00;102853.25;5089377;28;20114;-83
2021/12/15 01:26:12;;;;;;;72.22;38.50;;;;;;;8.09;100.00;102840.38;5090936;28;20118;-82
2021/12/15 01:28:37;;;;;;;76.90;38.70;;;;;;;8.14;100.00;102844.56;5082013;28;20032;-83
2021/12/15 01:31:05;;;;;;;71.70;37.90;;;;;;;8.12;100.00;102854.25;5090848;28;20107;-83
2021/12/15 01:33:31;;;;;;;72.85;38.35;;;;;;;8.07;100.00;102835.19;5087214;28;20031;-84
2021/12/15 01:35:58;;;;;;;73.68;38.72;;;;;;;8.11;100.00;102844.66;5088747;28;20020;-83
2021/12/15 01:38:31;;;;;;;71.35;37.88;;;;;;;8.06;100.00;102835.25;5088299;28;20024;-83
2021/12/15 01:40:58;;;;;;;72.57;37.50;;;;;;;8.06;100.00;102833.47;5090415;28;20055;-83
2021/12/15 01:49:20;;;;;;;67.75;36.95;;;;;;;8.06;100.00;102845.72;5083606;28;20093;-83
2021/12/15 01:51:45;;;;;;;74.32;38.05;;;;;;;8.04;100.00;102840.53;5080392;28;20023;-83
2021/12/15 01:54:15;;;;;;;77.05;38.08;;;;;;;8.07;100.00;102853.53;5090874;28;20031;-83
2021/12/15 01:56:42;;;;;;;77.55;37.90;;;;;;;8.11;100.00;102857.78;5089479;28;20880;-84
2021/12/15 01:59:09;;;;;;;70.20;37.33;;;;;;;8.07;100.00;102852.69;5081329;28;20024;-83
2021/12/15 02:01:35;;;;;;;73.50;38.28;;;;;;;8.08;100.00;102857.88;5089128;28;20019;-83
2021/12/15 02:04:00;;;;;;;76.65;38.60;;;;;;;8.08;100.00;102851.78;5088687;28;20031;-83
2021/12/15 02:06:27;;;;;;;75.70;38.70;;;;;;;8.13;100.00;102868.22;5088916;28;20031;-84
2021/12/15 02:08:52;;;;;;;75.43;38.83;;;;;;;8.13;100.00;102869.06;5088723;28;20031;-83
2021/12/15 02:11:41;;;;;;;72.90;37.42;;;;;;;8.16;100.00;102873.38;5082617;28;20391;-83
2021/12/15 02:14:07;;;;;;;76.55;38.90;;;;;;;8.15;100.00;102876.88;5091110;28;20055;-83
2021/12/15 02:16:32;;;;;;;74.82;38.50;;;;;;;8.06;100.00;102867.56;5086894;28;20075;-83
2021/12/15 02:19:03;;;;;;;72.10;38.00;;;;;;;8.14;100.00;102870.78;5088817;28;20036;-83
2021/12/15 02:21:29;;;;;;;69.53;37.03;;;;;;;8.13;100.00;102873.47;5079392;28;20024;-83
2021/12/15 02:23:58;;;;;;;77.80;37.67;;;;;;;8.10;100.00;102868.31;5089027;28;20110;-83
2021/12/15 02:26:27;;;;;;;74.80;38.15;;;;;;;8.09;100.00;102867.47;5084553;28;20034;-83
2021/12/15 02:28:57;;;;;;;71.55;37.40;;;;;;;8.13;100.00;102873.47;5089487;28;20385;-83
2021/12/15 02:37:16;;;;;;;77.32;38.40;;;;;;;8.11;100.00;102870.88;5080893;28;20047;-82
2021/12/15 02:39:39;;;;;;;75.35;38.75;;;;;;;8.12;100.00;102864.75;5088517;28;20301;-82
2021/12/15 02:42:05;;;;;;;76.75;38.95;;;;;;;8.12;100.00;102867.34;5084665;28;20032;-82
2021/12/15 02:44:30;;;;;;;75.18;37.85;;;;;;;8.11;100.00;102867.41;5087912;28;20039;-83
2021/12/15 02:46:57;;;;;;;76.20;38.40;;;;;;;8.15;100.00;102869.88;5089467;28;20490;-83
2021/12/15 02:49:27;;;;;;;73.47;37.78;;;;;;;8.12;100.00;102866.50;5088807;28;20081;-83
2021/12/15 02:51:53;;;;;;;77.75;38.28;;;;;;;8.10;100.00;102855.22;5088529;28;20460;-84
2021/12/15 02:54:20;;;;;;;74.28;37.15;;;;;;;8.11;100.00;102870.03;5089281;28;20032;-84
2021/12/15 02:56:46;;;;;;;80.38;38.22;;;;;;;8.13;100.00;102869.06;5089047;28;20047;-83
2021/12/15 02:59:14;;;;;;;75.20;37.60;;;;;;;8.16;100.00;102871.59;5086208;28;20062;-83
2021/12/15 03:02:04;;;;;;;71.97;37.67;;;;;;;8.12;100.00;102867.34;5083837;28;20026;-83
2021/12/15 03:04:41;;;;;;;75.15;36.78;;;;;;;8.12;100.00;102863.88;5082271;28;20027;-84
2021/12/15 03:07:26;;;;;;;67.43;35.28;;;;;;;8.12;100.00;102858.63;5087627;28;20070;-84
2021/12/15 03:15:32;;;;;;;72.78;35.75;;;;;;;8.11;100.00;102864.78;5087650;28;20031;-83
2021/12/15 03:18:03;;;;;;;70.30;36.88;;;;;;;8.15;100.00;102864.63;5083052;28;20030;-82
2021/12/15 03:20:32;;;;;;;77.78;37.50;;;;;;;8.13;100.00;102857.72;5079988;28;20102;-83
2021/12/15 03:22:58;;;;;;;75.13;37.00;;;;;;;8.15;100.00;102861.16;5088837;28;20144;-83
2021/12/15 03:25:25;;;;;;;71.32;35.72;;;;;;;8.14;100.00;102857.69;5088336;28;20079;-83
2021/12/15 03:33:54;;;;;;;74.18;36.25;;;;;;;8.11;100.00;102844.66;5088612;28;20068;-83
2021/12/15 03:36:51;;;;;;;67.55;34.80;;;;;;;8.13;100.00;102855.97;5081022;28;20028;-82
2021/12/15 03:39:17;;;;;;;68.43;34.33;;;;;;;8.21;100.00;102863.59;5085700;28;20050;-83
2021/12/15 03:41:43;;;;;;;73.10;34.90;;;;;;;8.16;100.00;102857.63;5079687;28;20107;-83
2021/12/15 03:44:09;;;;;;;74.70;36.13;;;;;;;8.21;100.00;102865.34;5087564;28;20173;-83
2021/12/15 03:46:35;;;;;;;66.05;34.67;;;;;;;8.21;100.00;102866.22;5088115;28;20420;-83
2021/12/15 03:49:00;;;;;;;70.28;34.97;;;;;;;8.17;100.00;102860.19;5088496;28;20491;-83
2021/12/15 03:51:26;;;;;;;68.97;34.75;;;;;;;8.17;100.00;102870.69;5084142;28;20043;-83
2021/12/15 03:53:51;;;;;;;67.63;34.25;;;;;;;8.17;100.00;102859.34;5090706;28;20020;-83
2021/12/15 03:56:17;;;;;;;63.88;34.63;;;;;;;8.23;100.00;102874.03;5092475;28;20031;-82
2021/12/15 03:58:45;;;;;;;64.40;33.53;;;;;;;8.23;100.00;102874.03;5092879;28;20541;-83
2021/12/15 04:01:14;;;;;;;62.58;33.85;;;;;;;8.19;100.00;102868.03;5091400;28;20024;-83
2021/12/15 04:03:43;;;;;;;67.03;34.03;;;;;;;8.23;100.00;102881.88;5091481;28;20590;-82
2021/12/15 04:06:14;;;;;;;65.28;33.03;;;;;;;8.23;100.00;102881.88;5092630;28;20032;-83
2021/12/15 04:08:40;;;;;;;65.50;32.95;;;;;;;8.19;100.00;102878.50;5088769;28;20506;-83
2021/12/15 04:11:09;;;;;;;63.13;33.10;;;;;;;8.23;100.00;102892.38;5095928;28;20029;-83
2021/12/15 04:13:36;;;;;;;67.93;34.00;;;;;;;8.18;100.00;102879.41;5097209;28;20023;-83
2021/12/15 04:16:08;;;;;;;62.35;32.53;;;;;;;8.18;100.00;102880.28;5091362;28;20061;-83
2021/12/15 04:18:35;;;;;;;61.25;32.00;;;;;;;8.24;100.00;102883.59;5090905;28;20024;-83
2021/12/15 04:21:03;;;;;;;65.05;33.33;;;;;;;8.18;100.00;102867.16;5091957;28;20057;-82
2021/12/15 04:23:28;;;;;;;66.20;33.28;;;;;;;8.25;100.00;102882.69;5091254;28;20559;-82
2021/12/15 04:25:55;;;;;;;62.90;32.92;;;;;;;8.20;100.00;102874.13;5090572;28;20194;-83
2021/12/15 04:28:32;;;;;;;62.88;32.05;;;;;;;8.27;100.00;102899.25;5091448;28;20103;-83
2021/12/15 04:31:03;;;;;;;62.10;32.70;;;;;;;8.22;100.00;102888.91;5090874;28;20036;-83
2021/12/15 04:33:55;;;;;;;59.10;31.80;;;;;;;8.29;100.00;102900.91;5091086;28;20467;-83
2021/12/15 04:36:25;;;;;;;62.65;31.90;;;;;;;8.26;100.00;102903.63;5085862;28;20398;-83
2021/12/15 04:38:51;;;;;;;59.75;32.30;;;;;;;8.19;100.00;102894.25;5090538;28;20082;-83
2021/12/15 04:41:19;;;;;;;61.67;30.98;;;;;;;8.23;100.00;102897.63;5084706;28;20069;-83
2021/12/15 04:43:55;;;;;;;64.47;32.83;;;;;;;8.21;100.00;102894.19;5090265;28;20089;-82
2021/12/15 04:46:21;;;;;;;62.25;31.52;;;;;;;8.23;100.00;102900.25;5090753;28;20035;-81
2021/12/15 04:48:46;;;;;;;61.05;31.65;;;;;;;8.23;100.00;102893.25;5091691;28;20487;-82
2021/12/15 04:51:14;;;;;;;64.05;32.03;;;;;;;8.23;100.00;102901.09;5090599;28;20027;-81
2021/12/15 04:53:41;;;;;;;58.00;31.45;;;;;;;8.23;100.00;102900.25;5091350;28;20028;-82
2021/12/15 04:56:07;;;;;;;60.47;31.67;;;;;;;8.23;100.00;102900.25;5092395;28;20399;-83
2021/12/15 04:58:33;;;;;;;55.92;31.45;;;;;;;8.22;100.00;102903.78;5087289;28;20027;-83
2021/12/15 05:01:01;;;;;;;59.08;29.95;;;;;;;8.19;100.00;102899.50;5085791;28;20038;-83
2021/12/15 05:03:27;;;;;;;57.92;29.45;;;;;;;8.22;100.00;102904.63;5083758;28;20046;-82
2021/12/15 05:05:52;;;;;;;57.50;30.92;;;;;;;8.24;100.00;102908.06;5089487;28;20038;-82
2021/12/15 05:08:18;;;;;;;58.33;31.48;;;;;;;8.27;100.00;102915.84;5088175;28;20023;-82
2021/12/15 05:10:43;;;;;;;54.75;30.08;;;;;;;8.24;100.00;102909.81;5090313;28;20085;-85
2021/12/15 05:13:10;;;;;;;58.13;30.05;;;;;;;8.26;100.00;102913.25;5093424;28;20547;-85
2021/12/15 05:15:36;;;;;;;56.97;29.05;;;;;;;8.26;100.00;102915.88;5085157;28;20047;-84
2021/12/15 05:18:04;;;;;;;55.95;29.38;;;;;;;8.28;100.00;102916.69;5090481;28;20446;-85
2021/12/15 05:20:30;;;;;;;55.78;29.40;;;;;;;8.27;100.00;102920.22;5089932;28;20380;-85
2021/12/15 05:22:55;;;;;;;58.25;29.02;;;;;;;8.26;100.00;102922.00;5089638;28;20027;-85
2021/12/15 05:25:21;;;;;;;53.17;29.67;;;;;;;8.25;100.00;102925.50;5088814;28;20043;-84
2021/12/15 05:27:47;;;;;;;57.65;28.77;;;;;;;8.27;100.00;102928.09;5090018;28;20523;-85
2021/12/15 05:30:15;;;;;;;54.47;28.73;;;;;;;8.27;100.00;102923.69;5090443;28;20039;-84
2021/12/15 05:32:43;;;;;;;60.60;29.48;;;;;;;8.22;100.00;102915.13;5081883;28;20016;-84
2021/12/15 05:35:14;;;;;;;57.05;30.17;;;;;;;8.22;100.00;102916.88;5089748;28;20028;-84
2021/12/15 05:37:41;;;;;;;61.17;29.52;;;;;;;8.24;100.00;102921.19;5088989;28;20074;-85
2021/12/15 05:40:07;;;;;;;58.78;29.20;;;;;;;8.24;100.00;102922.94;5088688;28;20036;-84
2021/12/15 05:42:33;;;;;;;58.83;31.05;;;;;;;8.24;100.00;102925.56;5089136;28;20020;-85
2021/12/15 05:44:58;;;;;;;58.50;29.48;;;;;;;8.20;100.00;102911.69;5090257;28;20491;-84
2021/12/15 05:47:25;;;;;;;60.45;31.02;;;;;;;8.25;100.00;102927.28;5087281;28;20376;-84
2021/12/15 05:49:52;;;;;;;60.38;30.05;;;;;;;8.24;100.00;102928.19;5087977;28;20024;-84
2021/12/15 05:52:18;;;;;;;61.38;30.33;;;;;;;8.23;100.00;102923.84;5089494;28;20032;-85
2021/12/15 05:54:44;;;;;;;57.33;29.55;;;;;;;8.24;100.00;102920.31;5089522;28;20433;-82
2021/12/15 05:57:09;;;;;;;58.30;30.60;;;;;;;8.23;100.00;102921.22;5088961;28;20103;-83
2021/12/15 05:59:35;;;;;;;62.00;31.27;;;;;;;8.25;100.00;102930.75;5089298;28;20027;-83
2021/12/15 06:02:00;;;;;;;64.32;31.55;;;;;;;8.25;100.00;102929.91;5087931;28;20028;-82
2021/12/15 06:04:26;;;;;;;59.30;30.00;;;;;;;8.24;100.00;102925.56;5087619;28;20028;-82
2021/12/15 06:06:52;;;;;;;62.30;31.13;;;;;;;8.17;100.00;102917.88;5089809;28;20024;-84
2021/12/15 06:09:17;;;;;;;68.07;32.55;;;;;;;8.21;100.00;102923.03;5088766;28;20046;-84
2021/12/15 06:11:49;;;;;;;69.28;32.08;;;;;;;8.21;100.00;102925.66;5088803;28;20016;-82
2021/12/15 06:14:22;;;;;;;67.38;32.17;;;;;;;8.20;100.00;102923.94;5095479;28;20031;-82
2021/12/15 06:16:48;;;;;;;67.57;32.15;;;;;;;8.20;100.00;102916.06;5081696;28;20088;-82
2021/12/15 06:19:14;;;;;;;66.70;31.85;;;;;;;8.25;100.00;102927.28;5089594;28;20488;-82
2021/12/15 06:21:39;;;;;;;67.60;32.17;;;;;;;8.21;100.00;102933.53;5086041;28;20028;-82
2021/12/15 06:24:05;;;;;;;64.55;32.08;;;;;;;8.22;100.00;102930.00;5084177;28;20055;-83
2021/12/15 06:26:30;;;;;;;68.05;32.05;;;;;;;8.23;100.00;102936.97;5087708;28;20043;-83
2021/12/15 06:29:02;;;;;;;66.93;32.85;;;;;;;8.23;100.00;102939.59;5089443;28;20038;-83
2021/12/15 06:31:28;;;;;;;75.32;34.92;;;;;;;8.20;100.00;102935.28;5087901;28;20546;-82
2021/12/15 06:33:56;;;;;;;67.93;33.20;;;;;;;8.25;100.00;102950.88;5089087;28;20036;-82
2021/12/15 06:36:22;;;;;;;70.03;34.08;;;;;;;8.26;100.00;102947.34;5087588;28;20024;-82
2021/12/15 06:38:53;;;;;;;74.45;34.28;;;;;;;8.24;100.00;102947.41;5085040;28;20126;-82
2021/12/15 06:41:20;;;;;;;67.78;33.60;;;;;;;8.27;100.00;102946.44;5089025;28;20047;-82
2021/12/15 06:43:51;;;;;;;71.47;34.40;;;;;;;8.22;100.00;102943.09;5087328;28;20058;-84
2021/12/15 07:00:12;;;;;;;76.13;34.72;;;;;;;8.26;100.00;102942.97;5083176;28;20039;-82
2021/12/15 07:02:39;;;;;;;71.32;34.15;;;;;;;8.29;100.00;102958.59;5087356;28;20028;-82
2021/12/15 07:05:08;;;;;;;75.47;34.22;;;;;;;8.31;100.00;102966.44;5087120;28;20034;-82
2021/12/15 07:07:34;;;;;;;72.47;34.63;;;;;;;8.30;100.00;102956.84;5088511;28;20150;-82
2021/12/15 07:09:59;;;;;;;68.75;33.67;;;;;;;8.29;100.00;102969.09;5088640;28;20048;-83
2021/12/15 07:12:31;;;;;;;75.60;34.38;;;;;;;8.28;100.00;102972.63;5081619;28;20081;-83
2021/12/15 07:15:00;;;;;;;78.97;36.03;;;;;;;8.26;100.00;102968.34;5088382;28;20026;-83
2021/12/15 07:17:27;;;;;;;76.70;34.03;;;;;;;8.28;100.00;102967.38;5088188;28;20016;-82
2021/12/15 07:22:37;;;;;;;80.15;36.22;;;;;;;8.31;100.00;102976.91;5087683;28;20449;-83
2021/12/15 07:25:05;;;;;;;80.45;35.33;;;;;;;8.31;100.00;102982.16;5086650;28;20110;-83
2021/12/15 07:27:31;;;;;;;78.93;35.65;;;;;;;8.26;100.00;102968.34;5087876;28;20028;-83
2021/12/15 07:30:06;;;;;;;83.53;36.58;;;;;;;8.27;100.00;102980.53;5088774;28;20039;-83
2021/12/15 07:32:31;;;;;;;77.13;35.22;;;;;;;8.31;100.00;102980.41;5091991;28;20028;-82
2021/12/15 07:34:57;;;;;;;82.97;36.58;;;;;;;8.25;100.00;102977.97;5092245;28;20717;-83
2021/12/15 07:37:22;;;;;;;81.57;34.28;;;;;;;8.31;100.00;102979.53;5091968;28;20036;-83
2021/12/15 07:40:00;;;;;;;84.13;37.03;;;;;;;8.31;100.00;102990.03;5091397;28;20040;-83
2021/12/15 07:42:43;;;;;;;81.40;37.60;;;;;;;8.31;100.00;102988.25;5088221;28;20027;-82
2021/12/15 07:45:10;;;;;;;80.15;34.92;;;;;;;8.31;100.00;102979.53;5087684;28;20032;-82
2021/12/15 07:47:36;;;;;;;86.07;37.03;;;;;;;8.31;100.00;102985.66;5086685;28;20506;-85
2021/12/15 07:50:04;;;;;;;82.72;36.78;;;;;;;8.32;100.00;102989.13;5091892;28;20020;-85
2021/12/15 07:52:30;;;;;;;86.28;36.80;;;;;;;8.29;100.00;102983.97;5092415;28;20095;-83
2021/12/15 07:54:56;;;;;;;84.80;37.28;;;;;;;8.33;100.00;102990.84;5089147;28;20427;-83
2021/12/15 07:57:28;;;;;;;84.38;37.53;;;;;;;8.27;100.00;102984.03;5092587;28;20028;-83
2021/12/15 08:00:59;;;;;;;87.45;37.90;;;;;;;8.35;100.00;102996.94;5087174;28;20107;-84
2021/12/15 08:07:04;;;;;;;89.68;39.33;;;;;;;8.35;100.00;102994.31;5002600;28;20069;-84
2021/12/15 08:17:08;;;;;;;90.03;38.75;;;;;;;8.35;100.00;103004.78;4923879;29;20041;-84
2021/12/15 08:19:33;;;;;;;89.03;39.10;;;;;;;8.30;100.00;103002.28;4932229;28;20024;-84
2021/12/15 08:21:59;;;;;;;89.57;40.90;;;;;;;8.31;100.00;103004.00;5008489;28;20428;-84
2021/12/15 08:24:24;;;;;;;89.57;40.08;;;;;;;8.34;100.00;103003.94;5058411;28;20044;-83
2021/12/15 08:26:49;;;;;;;91.90;38.25;;;;;;;8.37;100.00;103008.22;5091037;28;20476;-83
2021/12/15 08:29:15;;;;;;;90.25;39.75;;;;;;;8.31;100.00;102997.91;5090636;28;20036;-84
2021/12/15 08:31:41;;;;;;;90.22;41.40;;;;;;;8.35;100.00;102999.56;5092532;28;20042;-83
2021/12/15 08:34:08;;;;;;;89.78;39.50;;;;;;;8.33;100.00;103003.94;5091554;28;20094;-83
2021/12/15 08:36:34;;;;;;;85.53;40.15;;;;;;;8.31;100.00;102998.75;5088524;28;20016;-84
2021/12/15 08:39:00;;;;;;;87.30;39.30;;;;;;;8.37;100.00;103008.22;5090630;28;20040;-83
2021/12/15 08:41:29;;;;;;;88.45;40.50;;;;;;;8.35;100.00;103005.66;5089553;28;20081;-83
2021/12/15 08:43:55;;;;;;;88.38;41.47;;;;;;;8.37;100.00;103005.63;5090467;28;20550;-83
2021/12/15 08:46:25;;;;;;;89.80;39.53;;;;;;;8.33;100.00;102993.47;5090093;28;20392;-83
2021/12/15 08:48:52;;;;;;;89.30;40.38;;;;;;;8.38;100.00;103007.31;5092243;28;20110;-84
2021/12/15 08:51:25;;;;;;;86.45;39.53;;;;;;;8.38;100.00;103010.81;5091618;28;20506;-85
2021/12/15 08:53:53;;;;;;;89.55;40.15;;;;;;;8.41;100.00;103009.88;5090951;28;20059;-83
2021/12/15 08:56:21;;;;;;;91.32;40.90;;;;;;;8.42;100.00;103011.59;5091322;28;20028;-83
2021/12/15 08:58:47;;;;;;;86.70;39.72;;;;;;;8.39;100.00;103003.78;5090085;28;20077;-84
2021/12/15 09:01:13;;;;;;;86.75;39.92;;;;;;;8.40;100.00;103008.13;5091438;28;20430;-83
2021/12/15 09:03:41;;;;;;;87.18;40.47;;;;;;;8.38;100.00;103004.69;5089692;28;20525;-84
2021/12/15 09:06:06;;;;;;;86.47;40.67;;;;;;;8.41;100.00;103012.50;5088661;28;20052;-85
2021/12/15 09:08:31;;;;;;;82.13;39.58;;;;;;;8.43;100.00;103021.19;5090604;28;20028;-83
2021/12/15 09:11:03;;;;;;;88.15;39.25;;;;;;;8.44;100.00;103017.66;5089675;28;20396;-83
2021/12/15 09:13:30;;;;;;;84.28;39.80;;;;;;;8.46;100.00;103018.47;5095151;28;20032;-84
2021/12/15 09:15:58;;;;;;;82.15;39.85;;;;;;;8.48;100.00;103020.16;5085243;28;20369;-83
2021/12/15 09:18:23;;;;;;;82.78;39.50;;;;;;;8.50;100.00;103027.97;5089757;28;20028;-82
2021/12/15 09:20:49;;;;;;;87.65;41.05;;;;;;;8.53;100.00;103035.75;5089382;28;20519;-84
2021/12/15 09:23:17;;;;;;;82.38;39.95;;;;;;;8.54;100.00;103036.59;5090340;28;20051;-82
2021/12/15 09:25:44;;;;;;;82.63;39.92;;;;;;;8.51;100.00;103027.06;5087221;28;20489;-83
2021/12/15 09:28:10;;;;;;;82.45;40.85;;;;;;;8.51;100.00;103027.06;5091429;28;20098;-82
2021/12/15 09:30:43;;;;;;;86.38;39.95;;;;;;;8.53;100.00;103030.50;5085190;28;20119;-82
2021/12/15 09:33:14;;;;;;;82.25;39.28;;;;;;;8.60;100.00;103052.16;5084975;28;20024;-82
2021/12/15 09:35:44;;;;;;;78.00;39.20;;;;;;;8.59;100.00;103046.03;5081437;28;20081;-84
2021/12/15 09:38:10;;;;;;;76.22;38.15;;;;;;;8.57;100.00;103047.84;5089657;28;20125;-82
2021/12/15 09:40:35;;;;;;;85.40;40.03;;;;;;;8.61;100.00;103046.84;5088336;28;20044;-83
2021/12/15 09:43:03;;;;;;;84.35;40.47;;;;;;;8.62;100.00;103040.72;5090264;28;20157;-83
2021/12/15 10:06:49;;;;;;;80.53;41.15;;;;;;;8.82;100.00;103055.00;5084542;28;20089;-85
2021/12/15 10:17:47;;;;;;;81.25;41.38;;;;;;;8.88;100.00;103052.19;5089431;28;20404;-83
2021/12/15 10:20:22;;;;;;;79.45;40.47;;;;;;;8.89;100.00;103054.75;5088600;28;20020;-82
2021/12/15 10:22:53;;;;;;;77.50;41.15;;;;;;;8.93;100.00;103058.13;5078748;28;20067;-82
2021/12/15 10:25:20;;;;;;;76.22;40.97;;;;;;;8.96;100.00;103060.66;5077231;28;20106;-82
2021/12/15 10:27:54;;;;;;;72.38;40.15;;;;;;;8.96;100.00;103053.63;5088597;28;20032;-82
2021/12/15 10:30:27;;;;;;;78.10;42.15;;;;;;;9.02;100.00;103055.22;5085198;28;20202;-82
2021/12/15 10:33:00;;;;;;;75.50;40.13;;;;;;;9.06;100.00;103067.31;5079169;28;20373;-82
2021/12/15 10:35:32;;;;;;;73.35;39.60;;;;;;;9.04;100.00;103056.00;5084956;28;20138;-82
2021/12/15 10:38:20;;;;;;;78.45;40.70;;;;;;;9.13;100.00;103062.72;5083968;28;20036;-82
2021/12/15 10:40:56;;;;;;;72.18;40.70;;;;;;;9.08;100.00;103045.38;5084137;28;20118;-82
2021/12/15 10:43:26;;;;;;;73.13;41.03;;;;;;;9.13;100.00;103055.72;5075964;28;20062;-82
2021/12/15 10:45:56;;;;;;;75.45;40.40;;;;;;;9.12;100.00;103051.38;5079887;28;20039;-82
2021/12/15 10:48:37;;;;;;;72.97;41.10;;;;;;;9.17;100.00;103053.84;5080658;28;20028;-82
2021/12/15 10:51:22;;;;;;;71.70;41.75;;;;;;;9.13;100.00;103052.22;5074017;28;20028;-81
2021/12/15 10:53:48;;;;;;;71.72;40.50;;;;;;;9.19;100.00;103055.50;5075294;28;20025;-82
2021/12/15 10:56:17;;;;;;;75.38;42.72;;;;;;;9.18;100.00;103056.41;5076452;28;20024;-82
2021/12/15 10:58:46;;;;;;;74.85;41.45;;;;;;;9.23;100.00;103065.03;5072530;28;20020;-84
2021/12/15 11:01:31;;;;;;;76.78;41.50;;;;;;;9.28;100.00;103065.75;5073365;28;20025;-84
2021/12/15 11:03:57;;;;;;;73.70;42.30;;;;;;;9.28;100.00;103068.38;5080714;28;20408;-81
2021/12/15 11:06:32;;;;;;;72.10;41.50;;;;;;;9.29;100.00;103062.19;5075789;28;20115;-81
2021/12/15 11:09:42;;;;;;;75.30;41.35;;;;;;;9.37;100.00;103064.56;5081639;28;20027;-82
2021/12/15 11:12:13;;;;;;;74.75;41.75;;;;;;;9.36;100.00;103061.09;5036444;28;20105;-82
2021/12/15 11:14:41;;;;;;;75.82;43.22;;;;;;;9.32;100.00;103054.22;5096012;28;20516;-82
2021/12/15 11:17:18;;;;;;;78.28;41.47;;;;;;;9.35;100.00;103059.38;5080266;28;20032;-84
2021/12/15 11:20:08;;;;;;;72.43;41.47;;;;;;;9.39;100.00;103054.88;5080232;28;20028;-82
2021/12/15 11:22:39;;;;;;;68.68;41.20;;;;;;;9.42;100.00;103054.75;5079691;28;20029;-82
2021/12/15 11:25:20;;;;;;;74.53;42.30;;;;;;;9.45;100.00;103052.03;5086253;28;20090;-82
2021/12/15 11:27:59;;;;;;;66.15;40.53;;;;;;;9.41;100.00;103048.66;5090147;28;20510;-82
2021/12/15 11:30:31;;;;;;;69.93;40.97;;;;;;;9.45;100.00;103049.41;5083438;28;20031;-83
2021/12/15 11:32:59;;;;;;;68.88;39.67;;;;;;;9.43;100.00;103046.81;5084685;28;20422;-82
2021/12/15 11:35:32;;;;;;;71.10;41.53;;;;;;;9.45;100.00;103038.03;5085945;28;20383;-82
2021/12/15 11:38:05;;;;;;;68.97;40.38;;;;;;;9.47;100.00;103044.09;5087106;28;20123;-82
2021/12/15 11:40:37;;;;;;;;;;;;;;;9.60;100.00;103053.25;5082213;28;20024;-81
2021/12/15 11:43:04;;;;;;;60.50;37.83;;;;;;;9.50;100.00;103042.22;5083716;28;20273;-82
2021/12/15 11:45:30;;;;;;;63.88;39.58;;;;;;;9.54;100.00;103050.84;5076616;28;20028;-82
2021/12/15 11:48:19;;;;;;;68.50;39.97;;;;;;;9.55;100.00;103044.69;5087145;28;20028;-82
2021/12/15 11:50:48;;;;;;;64.38;40.33;;;;;;;9.52;100.00;103035.13;5082328;28;20129;-81
2021/12/15 11:53:23;;;;;;;65.00;41.15;;;;;;;9.62;100.00;103046.22;5084376;28;20077;-84
2021/12/15 11:55:49;;;;;;;62.70;37.95;;;;;;;9.60;100.00;103048.00;5083087;28;20056;-82
2021/12/15 11:58:15;;;;;;;64.03;39.10;;;;;;;9.56;99.90;103041.16;5083716;28;20475;-82
2021/12/15 12:00:40;;;;;;;56.78;36.92;;;;;;;9.64;100.00;103039.13;5083448;28;20028;-81
2021/12/15 12:03:06;;;;;;;57.78;36.67;;;;;;;9.65;99.64;103040.84;5083412;28;20020;-82
2021/12/15 12:05:37;;;;;;;58.92;37.20;;;;;;;9.63;99.34;103043.53;5074066;28;20517;-82
2021/12/15 12:08:10;;;;;;;56.50;35.83;;;;;;;9.65;99.29;103040.84;5081008;28;20036;-80
2021/12/15 12:10:45;;;;;;;53.47;35.35;;;;;;;9.65;99.18;103041.72;5079420;28;20040;-81
2021/12/15 12:13:22;;;;;;;56.25;37.13;;;;;;;9.68;99.29;103040.75;5080799;28;20028;-81
2021/12/15 12:15:51;;;;;;;59.17;37.30;;;;;;;9.69;98.87;103031.94;5078021;28;20037;-82
2021/12/15 12:18:23;;;;;;;53.55;35.38;;;;;;;9.71;99.13;103030.13;5080894;28;20036;-82
2021/12/15 12:20:58;;;;;;;51.97;34.10;;;;;;;9.73;99.03;103028.28;5081438;28;20130;-81
2021/12/15 12:23:27;;;;;;;51.22;35.55;;;;;;;9.73;99.05;103034.41;5072109;28;20082;-83
2021/12/15 12:25:57;;;;;;;58.30;36.15;;;;;;;9.71;98.85;103027.47;5079543;28;20028;-82
2021/12/15 12:28:25;;;;;;;55.45;35.08;;;;;;;9.77;98.55;103034.28;5082902;28;20173;-85
2021/12/15 12:30:57;;;;;;;52.50;35.83;;;;;;;9.77;98.07;103035.16;5085708;28;20035;-83
2021/12/15 12:33:26;;;;;;;51.60;34.78;;;;;;;9.79;98.03;103033.31;5078916;28;20026;-81
2021/12/15 12:35:56;;;;;;;50.65;34.42;;;;;;;9.81;98.09;103031.50;5076755;28;20044;-82
2021/12/15 12:38:27;;;;;;;52.08;33.10;;;;;;;9.80;97.74;103023.66;5093861;28;20043;-84
2021/12/15 12:41:00;;;;;;;53.00;33.33;;;;;;;9.82;97.94;103021.84;5086286;28;20036;-81
2021/12/15 12:43:30;;;;;;;51.83;34.42;;;;;;;9.81;97.60;103012.22;5075756;28;20020;-82
2021/12/15 12:46:16;;;;;;;50.80;33.58;;;;;;;9.87;97.94;103028.66;5079720;28;20062;-81
2021/12/15 13:00:35;;;;;;;44.30;30.42;;;;;;;9.89;96.99;102997.88;5082509;28;20065;-84